Terminal Aerodrome Forecast
Issued by NWS

Home | Current Version | Previous Version | Graphics & Text | Print | Product List | Glossary On
Versions: 1 2 3 4 5 6 7 8 9 10 11 12
344
FTUS43 KMPX 261729
TAFRNH
TAF
KRNH 261729Z 2618/2718 35012G16KT P6SM -DZ SCT008 BKN012 OVC020
     FM270300 35007KT P6SM -SN BKN008 OVC015
     FM271500 31010KT P6SM OVC010=

USA.gov is the U.S. government's official web portal to all federal, state and local government web resources and services.